createdAt,value
2023-05-24T00:01:52.739Z,4.90
2023-05-24T00:04:20.657Z,4.83
2023-05-24T00:06:49.777Z,5.00
2023-05-24T00:09:17.684Z,5.00
2023-05-24T00:11:45.438Z,4.97
2023-05-24T00:14:13.247Z,5.07
2023-05-24T00:16:41.080Z,5.17
2023-05-24T00:19:11.267Z,4.80
2023-05-24T00:21:39.397Z,5.20
2023-05-24T00:24:08.616Z,5.50
2023-05-24T00:26:36.584Z,5.13
2023-05-24T00:29:04.402Z,5.20
2023-05-24T00:31:32.150Z,4.83
2023-05-24T00:33:59.894Z,4.30
2023-05-24T00:36:27.729Z,5.17
2023-05-24T00:38:55.460Z,4.87
2023-05-24T00:41:24.555Z,5.30
2023-05-24T00:43:52.318Z,4.40
2023-05-24T00:46:22.519Z,4.60
2023-05-24T00:48:50.756Z,4.47
2023-05-24T00:51:19.095Z,4.77
2023-05-24T00:53:48.444Z,4.63
2023-05-24T00:56:17.447Z,4.73
2023-05-24T00:58:46.936Z,5.17
2023-05-24T01:01:14.822Z,5.13
2023-05-24T01:03:43.439Z,5.23
2023-05-24T01:06:15.860Z,4.83
2023-05-24T01:08:53.183Z,4.93
2023-05-24T01:11:30.290Z,4.23
2023-05-24T01:14:14.401Z,5.20
2023-05-24T01:16:51.732Z,4.47
2023-05-24T01:19:59.980Z,4.47
2023-05-24T01:22:47.225Z,4.93
2023-05-24T01:25:24.429Z,4.90
2023-05-24T01:27:53.970Z,4.80
2023-05-24T01:30:21.949Z,5.27
2023-05-24T01:32:49.844Z,4.57
2023-05-24T01:35:17.620Z,4.70
2023-05-24T01:37:45.425Z,4.50
2023-05-24T01:40:14.187Z,4.37
2023-05-24T01:42:46.891Z,4.90
2023-05-24T01:45:22.528Z,4.67
2023-05-24T01:48:03.067Z,5.07
2023-05-24T01:50:35.545Z,5.37
2023-05-24T01:53:07.665Z,3.97
2023-05-24T01:55:37.767Z,4.67
2023-05-24T01:58:07.410Z,4.63
2023-05-24T02:00:36.804Z,4.60
2023-05-24T02:03:06.849Z,4.30
2023-05-24T02:05:35.818Z,5.13
2023-05-24T02:08:04.499Z,4.53
2023-05-24T02:10:32.291Z,5.13
2023-05-24T02:13:00.422Z,4.53
2023-05-24T02:15:30.499Z,4.87
2023-05-24T02:18:01.517Z,4.63
2023-05-24T02:20:31.038Z,4.33
2023-05-24T02:23:00.150Z,4.30
2023-05-24T02:25:28.031Z,4.47
2023-05-24T02:27:56.226Z,4.47
2023-05-24T02:30:24.090Z,4.67
2023-05-24T02:32:51.985Z,4.50
2023-05-24T02:35:21.433Z,4.03
2023-05-24T02:37:49.218Z,4.07
2023-05-24T02:40:17.032Z,4.90
2023-05-24T02:42:44.819Z,4.20
2023-05-24T02:45:12.718Z,3.63
2023-05-24T02:47:40.491Z,4.97
2023-05-24T02:50:09.152Z,4.43
2023-05-24T02:52:38.237Z,4.37
2023-05-24T02:55:07.368Z,4.33
2023-05-24T02:57:35.149Z,4.70
2023-05-24T03:00:03.409Z,4.50
2023-05-24T03:02:34.287Z,4.40
2023-05-24T03:05:02.174Z,3.93
2023-05-24T03:07:29.961Z,3.70
2023-05-24T03:09:59.570Z,4.67
2023-05-24T03:12:27.416Z,4.13
2023-05-24T03:14:55.295Z,4.30
2023-05-24T03:17:23.075Z,3.90
2023-05-24T03:19:51.054Z,3.67
2023-05-24T03:22:19.033Z,4.57
2023-05-24T03:24:47.212Z,4.37
2023-05-24T03:27:16.273Z,4.20
2023-05-24T03:29:44.005Z,4.20
2023-05-24T03:32:11.735Z,4.00
2023-05-24T03:34:39.531Z,4.67
2023-05-24T03:37:07.262Z,4.10
2023-05-24T03:39:35.066Z,4.10
2023-05-24T03:42:02.813Z,4.80
2023-05-24T03:44:31.905Z,3.50
2023-05-24T03:46:59.712Z,4.13
2023-05-24T03:49:27.470Z,4.43
2023-05-24T03:51:55.198Z,3.90
2023-05-24T03:54:22.970Z,4.10
2023-05-24T03:56:53.271Z,4.83
2023-05-24T03:59:21.793Z,4.30
2023-05-24T04:01:50.879Z,4.40
2023-05-24T04:04:18.659Z,4.30
2023-05-24T04:06:47.957Z,4.37
2023-05-24T04:09:15.734Z,4.50
2023-05-24T04:11:43.510Z,4.63
2023-05-24T04:14:12.281Z,4.37
2023-05-24T04:16:41.841Z,4.47
2023-05-24T04:19:12.041Z,4.30
2023-05-24T04:21:42.201Z,4.43
2023-05-24T04:24:10.500Z,4.40
2023-05-24T04:26:38.731Z,4.17
2023-05-24T04:29:07.846Z,4.93
2023-05-24T04:31:35.905Z,5.10
2023-05-24T04:34:04.401Z,4.20
2023-05-24T04:36:35.708Z,4.80
2023-05-24T04:39:05.208Z,5.37
2023-05-24T04:41:33.280Z,4.70
2023-05-24T04:44:01.071Z,4.87
2023-05-24T04:46:28.995Z,4.53
2023-05-24T04:48:56.815Z,4.33
2023-05-24T04:51:25.181Z,4.20
2023-05-24T04:53:54.557Z,4.60
2023-05-24T04:56:22.909Z,3.83
2023-05-24T04:58:50.664Z,4.73
2023-05-24T05:01:19.089Z,4.67
2023-05-24T05:03:47.026Z,5.03
2023-05-24T05:06:15.291Z,4.50
2023-05-24T05:08:43.647Z,5.10
2023-05-24T05:11:12.748Z,4.63
2023-05-24T05:13:40.604Z,4.53
2023-05-24T05:16:08.525Z,4.60
2023-05-24T05:18:36.380Z,5.07
2023-05-24T05:21:04.376Z,5.07
2023-05-24T05:23:32.533Z,4.43
2023-05-24T05:26:00.319Z,4.30
2023-05-24T05:28:29.405Z,5.27
2023-05-24T05:30:58.684Z,5.13
2023-05-24T05:33:26.466Z,4.70
2023-05-24T05:35:55.005Z,4.70
2023-05-24T05:38:22.973Z,5.20
2023-05-24T05:40:50.824Z,4.83
2023-05-24T05:43:18.559Z,4.80
2023-05-24T05:45:47.859Z,5.17
2023-05-24T05:48:15.637Z,4.97
2023-05-24T05:50:43.525Z,5.53
2023-05-24T05:53:11.452Z,5.10
2023-05-24T05:55:39.201Z,5.33
2023-05-24T05:58:06.974Z,5.10
2023-05-24T06:00:34.753Z,5.07
2023-05-24T06:03:03.929Z,4.60
2023-05-24T06:05:31.738Z,5.17
2023-05-24T06:07:59.771Z,5.30
2023-05-24T06:10:27.827Z,4.87
2023-05-24T06:12:55.562Z,4.80
2023-05-24T06:15:23.399Z,4.40
2023-05-24T06:17:51.868Z,5.23
2023-05-24T06:20:21.798Z,4.90
2023-05-24T06:22:50.687Z,4.27
2023-05-24T06:25:19.828Z,4.30
2023-05-24T06:27:47.645Z,5.10
2023-05-24T06:30:15.737Z,4.60
2023-05-24T06:32:43.695Z,5.00
2023-05-24T06:35:11.828Z,6.00
2023-05-24T06:37:40.913Z,4.70
2023-05-24T06:40:10.220Z,5.73
2023-05-24T06:42:39.403Z,5.50
2023-05-24T06:45:08.453Z,5.53
2023-05-24T06:47:37.087Z,6.00
2023-05-24T06:50:05.803Z,5.20
2023-05-24T06:52:33.624Z,6.00
2023-05-24T06:55:02.718Z,5.53
2023-05-24T06:57:30.524Z,4.77
2023-05-24T06:59:58.328Z,5.30
2023-05-24T07:02:28.581Z,6.00
2023-05-24T07:04:57.125Z,5.80
2023-05-24T07:07:25.080Z,5.50
2023-05-24T07:09:52.902Z,5.80
2023-05-24T07:12:23.416Z,5.37
2023-05-24T07:14:51.714Z,5.43
2023-05-24T07:17:19.588Z,5.03
2023-05-24T07:19:47.313Z,6.17
2023-05-24T07:22:15.174Z,5.60
2023-05-24T07:24:42.909Z,5.13
2023-05-24T07:27:10.703Z,5.47
2023-05-24T07:29:39.751Z,5.83
2023-05-24T07:32:08.622Z,5.83
2023-05-24T07:34:36.401Z,5.60
2023-05-24T07:37:04.356Z,5.73
2023-05-24T07:39:32.231Z,5.78
2023-05-24T07:42:00.001Z,5.67
2023-05-24T07:44:27.765Z,5.88
2023-05-24T07:46:57.129Z,5.47
2023-05-24T07:49:24.973Z,5.63
2023-05-24T07:51:53.088Z,5.97
2023-05-24T07:54:21.506Z,6.13
2023-05-24T07:56:50.126Z,5.03
2023-05-24T07:59:17.900Z,5.60
2023-05-24T08:01:45.958Z,5.70
2023-05-24T08:04:15.008Z,5.70
2023-05-24T08:06:42.832Z,5.80
2023-05-24T08:09:10.701Z,6.03
2023-05-24T08:11:38.411Z,5.77
2023-05-24T08:14:06.176Z,5.57
2023-05-24T08:16:33.962Z,5.37
2023-05-24T08:19:01.780Z,5.55
2023-05-24T08:21:31.246Z,5.38
2023-05-24T08:24:00.079Z,5.15
2023-05-24T08:26:27.955Z,5.85
2023-05-24T08:28:55.718Z,5.65
2023-05-24T08:31:23.825Z,5.67
2023-05-24T08:33:52.847Z,5.10
2023-05-24T08:36:20.607Z,5.60
2023-05-24T08:38:49.683Z,5.53
2023-05-24T08:41:17.461Z,5.00
2023-05-24T08:43:46.113Z,5.80
2023-05-24T08:46:15.121Z,5.03
2023-05-24T08:48:46.728Z,5.47
2023-05-24T08:51:16.463Z,5.53
2023-05-24T08:53:48.528Z,6.03
2023-05-24T08:56:19.665Z,4.72
2023-05-24T08:58:47.760Z,4.97
2023-05-24T09:01:17.540Z,5.63
2023-05-24T09:03:47.866Z,5.43
2023-05-24T09:06:19.271Z,5.47
2023-05-24T09:08:47.296Z,5.65
2023-05-24T09:11:18.537Z,5.68
2023-05-24T09:13:46.815Z,5.00
2023-05-24T09:16:15.983Z,5.38
2023-05-24T09:18:43.766Z,4.70
2023-05-24T09:21:12.078Z,4.50
2023-05-24T09:23:40.077Z,5.53
2023-05-24T09:26:09.712Z,4.63
2023-05-24T09:28:41.697Z,4.75
2023-05-24T09:31:09.463Z,3.90
2023-05-24T09:33:37.318Z,4.85
2023-05-24T09:36:06.474Z,3.88
2023-05-24T09:38:36.437Z,4.97
2023-05-24T09:41:06.425Z,3.92
2023-05-24T09:43:36.257Z,4.55
2023-05-24T09:46:05.716Z,4.80
2023-05-24T09:48:33.551Z,5.25
2023-05-24T09:51:06.279Z,4.63
2023-05-24T09:53:37.116Z,5.03
2023-05-24T09:56:05.418Z,4.72
2023-05-24T09:58:33.911Z,4.57
2023-05-24T10:01:08.447Z,4.30
2023-05-24T10:03:37.431Z,4.30
2023-05-24T10:06:07.532Z,4.55
2023-05-24T10:08:36.119Z,4.85
2023-05-24T10:11:05.208Z,4.18
2023-05-24T10:13:35.783Z,4.68
2023-05-24T10:16:04.058Z,4.55
2023-05-24T10:18:33.245Z,4.25
2023-05-24T10:21:02.819Z,4.32
2023-05-24T10:23:32.473Z,4.22
2023-05-24T10:26:06.523Z,5.05
2023-05-24T10:28:37.037Z,4.70
2023-05-24T10:31:11.281Z,4.18
2023-05-24T10:33:43.826Z,4.75
2023-05-24T10:36:14.091Z,3.97
2023-05-24T10:38:41.946Z,4.43
2023-05-24T10:41:10.287Z,4.75
2023-05-24T10:43:38.954Z,4.93
2023-05-24T10:46:10.151Z,5.13
2023-05-24T10:48:42.618Z,4.25
2023-05-24T10:51:33.827Z,4.43
2023-05-24T10:54:15.844Z,4.70
2023-05-24T10:56:46.138Z,4.60
2023-05-24T10:59:34.724Z,4.63
2023-05-24T11:02:03.140Z,3.45
2023-05-24T11:04:38.950Z,3.30
2023-05-24T11:07:09.606Z,4.07
2023-05-24T11:09:39.459Z,4.30
2023-05-24T11:12:09.622Z,3.90
2023-05-24T11:14:40.421Z,3.33
2023-05-24T11:17:09.194Z,4.38
2023-05-24T11:19:40.119Z,4.25
2023-05-24T11:22:09.131Z,3.50
2023-05-24T11:24:38.189Z,4.28
2023-05-24T11:27:06.829Z,3.90
2023-05-24T11:29:40.977Z,3.78
2023-05-24T11:32:09.339Z,4.25
2023-05-24T11:34:40.016Z,4.15
2023-05-24T11:37:08.130Z,4.18
2023-05-24T11:39:38.491Z,5.50
2023-05-24T11:42:07.460Z,4.60
2023-05-24T11:44:38.049Z,4.15
2023-05-24T11:47:08.546Z,3.92
2023-05-24T11:49:37.169Z,4.07
2023-05-24T11:52:07.408Z,3.95
2023-05-24T11:54:37.297Z,3.90
2023-05-24T11:57:06.615Z,3.88
2023-05-24T11:59:37.869Z,3.05
2023-05-24T12:02:07.685Z,3.60
2023-05-24T12:04:36.369Z,3.55
2023-05-24T12:07:04.206Z,3.53
2023-05-24T12:09:33.308Z,3.28
2023-05-24T12:12:01.950Z,4.32
2023-05-24T12:14:31.180Z,3.85
2023-05-24T12:17:00.807Z,3.75
2023-05-24T12:19:34.584Z,3.50
2023-05-24T12:22:05.813Z,3.42
2023-05-24T12:24:35.257Z,3.40
2023-05-24T12:27:06.733Z,3.35
2023-05-24T12:29:36.524Z,3.38
2023-05-24T12:32:05.829Z,3.50
2023-05-24T12:34:33.880Z,3.03
2023-05-24T12:37:01.800Z,3.35
2023-05-24T12:39:34.038Z,3.25
2023-05-24T12:42:04.577Z,3.63
2023-05-24T12:44:36.450Z,3.08
2023-05-24T12:47:06.560Z,3.13
2023-05-24T12:49:34.684Z,2.80
2023-05-24T12:52:02.818Z,2.75
2023-05-24T12:54:31.195Z,2.80
2023-05-24T12:57:02.761Z,3.28
2023-05-24T12:59:32.500Z,2.58
2023-05-24T13:02:00.709Z,3.08
2023-05-24T13:04:30.601Z,3.05
2023-05-24T13:06:58.581Z,3.10
2023-05-24T13:09:26.903Z,3.22
2023-05-24T13:11:55.130Z,2.42
2023-05-24T13:14:23.198Z,2.47
2023-05-24T13:16:52.574Z,2.60
2023-05-24T13:19:20.450Z,2.40
2023-05-24T13:21:48.758Z,2.58
2023-05-24T13:24:17.539Z,2.75
2023-05-24T13:26:46.307Z,2.90
2023-05-24T13:31:45.459Z,3.05
2023-05-24T13:34:14.774Z,2.85
2023-05-24T13:36:43.744Z,2.53
2023-05-24T13:41:43.034Z,2.65
2023-05-24T13:44:11.462Z,2.45
2023-05-24T13:46:39.574Z,3.30
2023-05-24T13:49:07.801Z,2.80
2023-05-24T13:51:37.590Z,3.42
2023-05-24T13:54:07.209Z,3.10
2023-05-24T13:56:35.350Z,2.50
2023-05-24T13:59:04.566Z,3.17
2023-05-24T14:01:33.470Z,3.05
2023-05-24T14:04:02.824Z,3.38
2023-05-24T14:06:30.733Z,3.22
2023-05-24T14:09:00.564Z,2.92
2023-05-24T14:11:31.891Z,2.42
2023-05-24T14:16:31.050Z,2.80
2023-05-24T14:18:58.948Z,3.00
2023-05-24T14:21:27.243Z,2.65
2023-05-24T14:23:55.420Z,2.90
2023-05-24T14:26:24.595Z,2.45
2023-05-24T14:28:55.365Z,2.83
2023-05-24T14:31:24.469Z,2.60
2023-05-24T14:33:52.261Z,2.20
2023-05-24T14:36:20.197Z,2.38
2023-05-24T14:38:48.136Z,2.42
2023-05-24T14:41:16.270Z,3.03
2023-05-24T14:43:45.553Z,3.35
2023-05-24T14:46:13.331Z,2.70
2023-05-24T14:48:41.817Z,2.97
2023-05-24T14:51:09.850Z,3.00
2023-05-24T14:53:37.575Z,2.95
2023-05-24T14:56:07.518Z,3.33
2023-05-24T14:58:35.851Z,2.65
2023-05-24T15:01:04.994Z,3.10
2023-05-24T15:03:33.018Z,2.72
2023-05-24T15:06:01.112Z,2.95
2023-05-24T15:08:29.467Z,3.10
2023-05-24T15:10:58.863Z,3.00
2023-05-24T15:13:26.987Z,2.50
2023-05-24T15:15:56.668Z,2.50
2023-05-24T15:18:27.965Z,3.03
2023-05-24T15:20:56.383Z,2.90
2023-05-24T15:23:25.047Z,2.90
2023-05-24T15:25:52.901Z,2.72
2023-05-24T15:28:20.694Z,2.92
2023-05-24T15:30:48.626Z,2.45
2023-05-24T15:33:17.092Z,3.13
2023-05-24T15:35:46.391Z,2.85
2023-05-24T15:38:17.541Z,2.80
2023-05-24T15:40:46.220Z,2.90
2023-05-24T15:43:15.539Z,2.63
2023-05-24T15:45:43.822Z,2.67
2023-05-24T15:48:12.744Z,2.72
2023-05-24T15:51:01.815Z,2.72
2023-05-24T15:53:29.607Z,2.50
2023-05-24T15:55:57.396Z,2.63
2023-05-24T15:58:25.158Z,2.88
2023-05-24T16:00:54.377Z,3.25
2023-05-24T16:03:22.261Z,2.75
2023-05-24T16:05:50.606Z,2.78
2023-05-24T16:08:18.363Z,3.03
2023-05-24T16:10:49.114Z,2.42
2023-05-24T16:13:16.959Z,2.65
2023-05-24T16:15:50.970Z,2.70
2023-05-24T16:18:21.331Z,2.80
2023-05-24T16:20:49.672Z,2.95
2023-05-24T16:23:17.500Z,2.80
2023-05-24T16:25:46.747Z,2.80
2023-05-24T16:28:14.442Z,2.80
2023-05-24T16:30:42.503Z,2.58
2023-05-24T16:33:10.619Z,3.25
2023-05-24T16:35:38.470Z,3.15
2023-05-24T16:38:06.412Z,2.78
2023-05-24T16:40:34.179Z,2.75
2023-05-24T16:43:03.248Z,2.58
2023-05-24T16:45:31.015Z,2.63
2023-05-24T16:48:01.820Z,2.83
2023-05-24T16:50:29.629Z,3.35
2023-05-24T16:52:57.392Z,3.90
2023-05-24T16:55:25.128Z,3.08
2023-05-24T16:57:53.052Z,2.83
2023-05-24T17:00:23.109Z,3.50
2023-05-24T17:02:50.943Z,3.60
2023-05-24T17:05:18.767Z,2.80
2023-05-24T17:07:46.652Z,2.90
2023-05-24T17:10:14.408Z,2.90
2023-05-24T17:12:43.109Z,3.05
2023-05-24T17:15:13.512Z,3.10
2023-05-24T17:17:43.634Z,2.67
2023-05-24T17:20:12.540Z,3.08
2023-05-24T17:22:41.199Z,2.70
2023-05-24T17:25:09.745Z,2.67
2023-05-24T17:27:38.410Z,2.78
2023-05-24T17:30:07.731Z,3.30
2023-05-24T17:32:35.810Z,2.90
2023-05-24T17:44:37.435Z,3.10
2023-05-24T17:47:06.368Z,3.00
2023-05-24T17:49:34.589Z,3.30
2023-05-24T17:52:04.496Z,2.95
2023-05-24T17:54:32.644Z,3.42
2023-05-24T17:57:03.065Z,2.75
2023-05-24T17:59:40.264Z,3.10
2023-05-24T18:02:08.374Z,2.58
2023-05-24T18:04:36.833Z,2.22
2023-05-24T18:07:07.005Z,2.85
2023-05-24T18:09:34.895Z,3.58
2023-05-24T18:12:03.559Z,2.97
2023-05-24T18:14:32.640Z,3.10
2023-05-24T18:17:02.832Z,3.00
2023-05-24T18:19:33.065Z,3.05
2023-05-24T18:22:02.045Z,3.50
2023-05-24T18:24:32.809Z,3.10
2023-05-24T18:27:02.182Z,3.35
2023-05-24T18:29:30.256Z,2.78
2023-05-24T18:31:58.422Z,2.85
2023-05-24T18:34:26.649Z,3.10
2023-05-24T18:40:17.569Z,3.20
2023-05-24T18:42:46.250Z,3.33
2023-05-24T18:45:15.360Z,3.35
2023-05-24T18:47:43.445Z,2.90
2023-05-24T18:50:12.049Z,3.27
2023-05-24T18:52:40.110Z,4.30
2023-05-24T18:55:10.877Z,3.30
2023-05-24T18:57:50.707Z,3.42
2023-05-24T19:00:22.536Z,4.70
2023-05-24T19:02:50.666Z,3.10
2023-05-24T19:05:22.411Z,3.30
2023-05-24T19:07:51.020Z,3.23
2023-05-24T19:10:19.274Z,3.60
2023-05-24T19:12:48.880Z,3.17
2023-05-24T19:15:16.995Z,3.13
2023-05-24T19:17:45.041Z,3.80
2023-05-24T19:20:13.615Z,3.22
2023-05-24T19:22:41.664Z,3.70
2023-05-24T19:25:10.578Z,3.87
2023-05-24T19:27:44.743Z,3.17
2023-05-24T19:30:24.381Z,3.58
2023-05-24T19:32:52.503Z,3.33
2023-05-24T19:35:21.110Z,3.07
2023-05-24T19:37:52.449Z,3.23
2023-05-24T19:40:20.724Z,3.60
2023-05-24T19:42:49.497Z,4.03
2023-05-24T19:45:17.644Z,3.40
2023-05-24T19:47:47.080Z,3.57
2023-05-24T19:50:15.213Z,3.13
2023-05-24T19:52:43.253Z,3.83
2023-05-24T19:55:11.588Z,3.20
2023-05-24T19:57:39.802Z,3.77
2023-05-24T20:00:08.936Z,3.47
2023-05-24T20:02:37.016Z,3.23
2023-05-24T20:05:07.847Z,3.50
2023-05-24T20:07:36.178Z,3.30
2023-05-24T20:10:05.635Z,3.07
2023-05-24T20:12:34.769Z,3.87
2023-05-24T20:15:02.843Z,3.23
2023-05-24T20:17:31.125Z,2.90
2023-05-24T20:19:59.316Z,3.33
2023-05-24T20:22:28.756Z,3.13
2023-05-24T20:24:56.640Z,3.80
2023-05-24T20:27:24.462Z,3.50
2023-05-24T20:29:52.315Z,3.30
2023-05-24T20:32:20.120Z,3.50
2023-05-24T20:34:47.925Z,3.37
2023-05-24T20:37:15.798Z,3.60
2023-05-24T20:39:45.178Z,3.33
2023-05-24T20:42:12.966Z,3.37
2023-05-24T20:44:40.757Z,3.63
2023-05-24T20:47:08.530Z,3.73
2023-05-24T20:49:36.893Z,3.30
2023-05-24T20:52:04.878Z,3.23
2023-05-24T20:54:32.708Z,3.30
2023-05-24T20:57:01.988Z,3.60
2023-05-24T20:59:30.546Z,2.90
2023-05-24T21:01:58.575Z,3.30
2023-05-24T21:04:27.057Z,3.87
2023-05-24T21:06:55.142Z,3.77
2023-05-24T21:09:23.168Z,3.40
2023-05-24T21:11:50.947Z,3.13
2023-05-24T21:14:20.008Z,3.07
2023-05-24T21:16:47.770Z,3.20
2023-05-24T21:19:15.539Z,3.77
2023-05-24T21:21:43.293Z,3.83
2023-05-24T21:24:11.115Z,3.90
2023-05-24T21:26:39.182Z,4.03
2023-05-24T21:29:07.230Z,4.10
2023-05-24T21:31:36.369Z,4.00
2023-05-24T21:34:04.392Z,3.70
2023-05-24T21:36:32.327Z,4.30
2023-05-24T21:39:00.570Z,4.00
2023-05-24T21:41:28.435Z,4.30
2023-05-24T21:43:56.344Z,4.77
2023-05-24T21:46:24.150Z,4.47
2023-05-24T21:48:53.353Z,4.37
2023-05-24T21:51:21.099Z,3.97
2023-05-24T21:53:48.882Z,4.07
2023-05-24T21:56:16.820Z,4.00
2023-05-24T21:58:44.573Z,4.20
2023-05-24T22:01:12.476Z,4.50
2023-05-24T22:03:40.641Z,4.90
2023-05-24T22:06:10.084Z,4.33
2023-05-24T22:08:37.897Z,4.60
2023-05-24T22:11:05.794Z,4.53
2023-05-24T22:13:33.572Z,4.60
2023-05-24T22:16:01.559Z,4.13
2023-05-24T22:18:30.452Z,4.07
2023-05-24T22:20:59.195Z,4.50
2023-05-24T22:23:28.335Z,4.37
2023-05-24T22:25:56.174Z,4.30
2023-05-24T22:28:25.016Z,4.17
2023-05-24T22:30:53.267Z,4.50
2023-05-24T22:33:21.217Z,3.83
2023-05-24T22:35:49.427Z,4.40
2023-05-24T22:38:17.328Z,4.20
2023-05-24T22:40:47.056Z,4.60
2023-05-24T22:43:14.922Z,4.87
2023-05-24T22:45:42.959Z,4.30
2023-05-24T22:48:11.100Z,4.23
2023-05-24T22:50:39.300Z,4.43
2023-05-24T22:53:09.118Z,4.30
2023-05-24T22:55:36.888Z,4.10
2023-05-24T22:58:06.016Z,4.00
2023-05-24T23:00:33.829Z,4.47
2023-05-24T23:03:01.665Z,4.60
2023-05-24T23:05:30.427Z,4.33
2023-05-24T23:07:58.598Z,3.73
2023-05-24T23:10:26.519Z,4.13
2023-05-24T23:12:55.233Z,4.30
2023-05-24T23:15:24.339Z,4.63
2023-05-24T23:17:52.783Z,4.07
2023-05-24T23:20:20.775Z,4.70
2023-05-24T23:22:48.884Z,4.13
2023-05-24T23:25:16.601Z,5.17
2023-05-24T23:27:44.434Z,4.57
2023-05-24T23:30:12.494Z,4.70
2023-05-24T23:32:41.663Z,4.90
2023-05-24T23:35:10.111Z,4.20
2023-05-24T23:37:37.916Z,4.60
2023-05-24T23:40:06.769Z,4.67
2023-05-24T23:42:34.670Z,5.30
2023-05-24T23:45:02.851Z,5.00
2023-05-24T23:47:30.857Z,5.10
2023-05-24T23:50:00.080Z,4.73
2023-05-24T23:52:28.301Z,5.20
2023-05-24T23:54:56.108Z,4.53
2023-05-24T23:57:24.985Z,5.00
2023-05-24T23:59:52.840Z,4.77
